createdAt,value
2022-09-26T00:04:32.632Z,89.7
2022-09-26T00:09:15.283Z,90.0
2022-09-26T00:14:21.640Z,90.1
2022-09-26T00:19:28.112Z,90.3
2022-09-26T00:24:54.660Z,90.5
2022-09-26T00:29:41.112Z,90.7
2022-09-26T00:34:47.405Z,90.9
2022-09-26T00:39:53.773Z,91.0
2022-09-26T00:45:00.254Z,91.5
2022-09-26T00:50:06.512Z,91.6
2022-09-26T00:55:26.966Z,91.5
2022-09-26T01:05:25.819Z,91.6
2022-09-26T01:10:32.203Z,91.9
2022-09-26T01:15:58.727Z,91.8
2022-09-26T01:20:59.008Z,91.7
2022-09-26T01:25:51.449Z,91.9
2022-09-26T01:31:18.038Z,91.9
2022-09-26T01:36:24.337Z,92.0
2022-09-26T01:41:10.704Z,92.0
2022-09-26T01:46:17.156Z,91.9
2022-09-26T01:51:23.489Z,92.0
2022-09-26T01:56:19.844Z,92.1
2022-09-26T02:01:26.330Z,92.3
2022-09-26T02:06:42.841Z,92.6
2022-09-26T02:11:49.192Z,92.8
2022-09-26T02:17:15.616Z,93.1
2022-09-26T02:22:22.026Z,93.1
2022-09-26T02:27:08.350Z,93.1
2022-09-26T02:32:14.770Z,93.3
2022-09-26T02:37:11.157Z,93.3
2022-09-26T02:47:34.061Z,93.7
2022-09-26T03:07:59.561Z,93.7
2022-09-26T03:13:05.952Z,93.5
2022-09-26T03:18:31.379Z,93.7
2022-09-26T03:23:18.722Z,93.7
2022-09-26T03:28:15.082Z,93.6
2022-09-26T03:33:31.476Z,93.8
2022-09-26T03:38:37.953Z,93.6
2022-09-26T03:44:04.405Z,93.8
2022-09-26T04:04:10.195Z,94.1
2022-09-26T04:14:46.997Z,94.2
2022-09-26T04:19:29.315Z,94.1
2022-09-26T04:24:25.783Z,94.1
2022-09-26T04:30:05.161Z,94.5
2022-09-26T04:34:48.436Z,94.6
2022-09-26T04:39:54.865Z,94.4
2022-09-26T04:45:02.807Z,94.3
2022-09-26T04:50:12.392Z,94.3
2022-09-26T04:55:18.903Z,94.4
2022-09-26T05:06:26.767Z,94.8
2022-09-26T05:11:14.127Z,95.0
2022-09-26T05:16:20.579Z,95.1
2022-09-26T05:21:26.881Z,94.7
2022-09-26T05:26:57.349Z,95.0
2022-09-26T05:32:39.796Z,95.0
2022-09-26T05:36:50.065Z,94.8
2022-09-26T05:42:20.524Z,95.0
2022-09-26T05:47:18.851Z,95.0
2022-09-26T05:52:25.305Z,94.9
2022-09-26T05:57:11.613Z,95.2
2022-09-26T06:02:20.911Z,95.0
2022-09-26T06:07:47.589Z,95.0
2022-09-26T06:12:53.975Z,95.0
2022-09-26T06:17:40.380Z,94.9
2022-09-26T06:22:48.285Z,94.8
2022-09-26T06:28:18.712Z,94.8
2022-09-26T06:33:01.154Z,94.8
2022-09-26T06:38:26.509Z,94.9
2022-09-26T06:43:27.868Z,94.8
2022-09-26T06:50:06.556Z,94.6
2022-09-26T06:53:51.752Z,95.0
2022-09-26T06:58:58.136Z,95.0
2022-09-26T07:04:38.614Z,95.4
2022-09-26T07:09:12.488Z,95.4
2022-09-26T07:14:26.387Z,95.6
2022-09-26T07:19:23.747Z,95.7
2022-09-26T07:24:41.797Z,95.6
2022-09-26T07:29:48.103Z,95.6
2022-09-26T07:40:01.975Z,95.8
2022-09-26T07:45:31.533Z,95.9
2022-09-26T07:50:13.909Z,95.8
2022-09-26T07:55:44.343Z,95.8
2022-09-26T08:00:26.656Z,95.9
2022-09-26T08:05:33.017Z,95.9
2022-09-26T08:10:39.394Z,96.0
2022-09-26T08:15:45.865Z,95.9
2022-09-26T08:20:52.171Z,96.2
2022-09-26T08:25:58.573Z,96.4
2022-09-26T08:30:54.995Z,96.3
2022-09-26T08:36:01.315Z,96.1
2022-09-26T08:41:17.715Z,96.2
2022-09-26T08:46:24.272Z,96.5
2022-09-26T08:56:36.960Z,96.5
2022-09-26T09:01:43.543Z,96.4
2022-09-26T09:06:49.738Z,96.6
2022-09-26T09:11:56.340Z,96.8
2022-09-26T09:17:02.743Z,96.7
2022-09-26T09:32:21.909Z,96.9
2022-09-26T09:37:28.245Z,96.9
2022-09-26T09:42:58.655Z,97.2
2022-09-26T09:47:41.025Z,97.2
2022-09-26T09:52:47.374Z,97.4
2022-09-26T09:57:53.855Z,97.4
2022-09-26T10:03:44.481Z,97.3
2022-09-26T10:08:06.753Z,97.4
2022-09-26T10:13:13.158Z,97.4
2022-09-26T10:18:27.416Z,97.5
2022-09-26T10:23:24.940Z,97.5
2022-09-26T10:34:02.732Z,97.7
2022-09-26T10:38:45.087Z,97.4
2022-09-26T10:44:11.476Z,97.4
2022-09-26T10:49:17.848Z,97.5
2022-09-26T10:54:04.385Z,97.2
2022-09-26T10:59:34.757Z,97.3
2022-09-26T11:04:17.249Z,97.4
2022-09-26T11:09:23.485Z,97.2
2022-09-26T11:14:29.832Z,99.9
2022-09-26T11:19:36.228Z,98.4
2022-09-26T11:24:42.662Z,98.5
2022-09-26T11:30:09.143Z,98.1
2022-09-26T11:34:55.585Z,98.1
2022-09-26T11:40:22.248Z,98.1
2022-09-26T11:44:58.416Z,98.2
2022-09-26T11:50:14.839Z,98.7
2022-09-26T11:55:21.227Z,98.6
2022-09-26T12:05:33.989Z,99.0
2022-09-26T12:10:40.358Z,98.9
2022-09-26T12:15:47.849Z,99.0
2022-09-26T12:26:00.634Z,99.1
2022-09-26T12:31:07.096Z,99.2
2022-09-26T12:36:03.396Z,99.2
2022-09-26T12:41:43.847Z,99.3
2022-09-26T12:51:32.574Z,99.2
2022-09-26T12:56:38.956Z,99.2
2022-09-26T13:01:45.491Z,99.6
2022-09-26T13:11:58.100Z,99.7
2022-09-26T13:22:10.851Z,99.6
2022-09-26T13:27:17.228Z,99.6
2022-09-26T13:32:38.290Z,99.3
2022-09-26T13:37:30.636Z,99.5
2022-09-26T13:42:37.008Z,99.3
2022-09-26T13:47:43.403Z,99.1
2022-09-26T13:52:49.857Z,99.2
2022-09-26T13:57:56.241Z,99.1
2022-09-26T14:03:04.880Z,99.1
2022-09-26T14:08:09.031Z,99.2
2022-09-26T14:13:15.427Z,99.1
2022-09-26T14:18:21.933Z,99.4
2022-09-26T14:23:28.425Z,99.5
2022-09-26T14:28:26.817Z,99.4
2022-09-26T14:33:31.274Z,99.5
2022-09-26T14:43:54.226Z,99.7
2022-09-26T14:48:50.621Z,99.6
2022-09-26T14:54:07.090Z,99.9
2022-09-26T14:59:33.423Z,99.6
2022-09-26T15:04:19.787Z,99.8
2022-09-26T15:09:26.176Z,99.7
2022-09-26T15:19:29.035Z,99.9
2022-09-26T15:25:05.573Z,99.9
2022-09-26T15:34:48.283Z,99.9
2022-09-26T15:40:24.766Z,99.9
2022-09-26T15:45:11.065Z,99.9
2022-09-26T15:55:23.885Z,99.9
2022-09-26T16:05:43.238Z,99.9
2022-09-26T16:15:53.123Z,99.9
2022-09-26T16:25:55.837Z,99.9
2022-09-26T16:32:06.425Z,99.9
2022-09-26T16:36:53.831Z,99.9
2022-09-26T16:42:01.139Z,99.9
2022-09-26T16:47:06.576Z,99.9
2022-09-26T16:52:03.047Z,99.9
2022-09-26T16:57:19.446Z,99.9
2022-09-26T17:02:15.880Z,99.9
2022-09-26T17:07:22.286Z,99.9
2022-09-26T17:12:38.686Z,99.9
2022-09-26T17:18:09.151Z,99.9
2022-09-26T17:27:47.839Z,99.9
2022-09-26T17:33:04.263Z,99.9
2022-09-26T17:38:00.667Z,99.9
2022-09-26T17:43:07.020Z,99.9
2022-09-26T17:53:32.652Z,99.9
2022-09-26T17:58:50.199Z,99.9
2022-09-26T18:04:54.678Z,99.9
2022-09-26T18:08:38.975Z,99.9
2022-09-26T18:13:45.323Z,99.9
2022-09-26T18:19:16.679Z,99.9
2022-09-26T18:24:08.118Z,99.9
2022-09-26T18:29:38.539Z,99.9
2022-09-26T18:34:40.932Z,99.9
2022-09-26T18:39:27.296Z,99.9
2022-09-26T18:44:23.848Z,99.9
2022-09-26T18:49:40.245Z,99.9
2022-09-26T18:55:10.707Z,99.9
2022-09-26T19:04:49.401Z,99.9
2022-09-26T19:20:53.649Z,99.9
2022-09-26T19:26:20.068Z,99.9
2022-09-26T19:30:56.475Z,99.9
2022-09-26T19:36:02.776Z,99.9
2022-09-26T19:41:09.419Z,99.9
2022-09-26T19:46:25.880Z,99.9
2022-09-26T19:51:32.148Z,99.9
2022-09-26T19:56:28.500Z,99.9
2022-09-26T20:01:59.001Z,99.9
2022-09-26T20:06:50.320Z,99.9
2022-09-26T20:11:47.673Z,99.9
2022-09-26T20:17:04.190Z,99.9
2022-09-26T20:22:10.469Z,99.9
2022-09-26T20:27:16.842Z,99.9
2022-09-26T20:32:23.259Z,99.9
2022-09-26T20:37:29.622Z,99.9
2022-09-26T20:43:00.058Z,99.9
2022-09-26T20:47:42.468Z,99.9
2022-09-26T20:52:48.794Z,99.9
2022-09-26T20:57:55.162Z,99.9
2022-09-26T21:03:01.630Z,99.9
2022-09-26T21:08:07.911Z,99.9
2022-09-26T21:13:14.418Z,99.9
2022-09-26T21:18:44.972Z,99.9
2022-09-26T21:23:27.272Z,99.9
2022-09-26T21:28:33.663Z,99.9
2022-09-26T21:33:40.024Z,99.9
2022-09-26T21:39:10.610Z,99.9
2022-09-26T21:43:52.828Z,99.9
2022-09-26T21:48:49.285Z,99.9
2022-09-26T21:59:12.159Z,99.9
2022-09-26T22:04:18.422Z,99.9
2022-09-26T22:09:14.883Z,99.8
2022-09-26T22:14:21.172Z,99.8
2022-09-26T22:19:37.522Z,99.9
2022-09-26T22:24:43.896Z,99.9
2022-09-26T22:30:14.339Z,99.8
2022-09-26T22:34:56.777Z,99.8
2022-09-26T22:45:09.555Z,99.9
2022-09-26T22:50:15.943Z,99.8
2022-09-26T22:55:22.295Z,99.7
2022-09-26T23:00:18.663Z,99.6
2022-09-26T23:05:25.096Z,99.8
2022-09-26T23:10:41.546Z,99.7
2022-09-26T23:15:47.925Z,99.7
2022-09-26T23:20:54.328Z,99.6
2022-09-26T23:26:00.670Z,99.7
2022-09-26T23:31:07.249Z,99.7
2022-09-26T23:36:13.465Z,99.6
2022-09-26T23:41:19.846Z,99.7
2022-09-26T23:46:26.395Z,99.6
2022-09-26T23:51:32.714Z,99.8
2022-09-26T23:56:59.085Z,99.8
